createdAt,value
2022-08-01T00:00:09.755Z,9.52
2022-08-01T00:02:39.281Z,9.57
2022-08-01T00:05:07.902Z,10.18
2022-08-01T00:07:35.917Z,9.50
2022-08-01T00:10:04.753Z,9.70
2022-08-01T00:12:31.665Z,10.23
2022-08-01T00:14:58.573Z,9.73
2022-08-01T00:17:25.467Z,9.52
2022-08-01T00:19:52.912Z,9.43
2022-08-01T00:22:19.794Z,9.25
2022-08-01T00:24:46.623Z,8.93
2022-08-01T00:27:13.517Z,9.55
2022-08-01T00:30:09.667Z,8.75
2022-08-01T00:32:27.305Z,9.13
2022-08-01T00:34:54.209Z,8.90
2022-08-01T00:37:21.048Z,8.63
2022-08-01T00:39:47.890Z,8.38
2022-08-01T00:42:14.784Z,8.82
2022-08-01T00:44:41.922Z,8.77
2022-08-01T00:47:09.072Z,9.02
2022-08-01T00:49:36.090Z,8.40
2022-08-01T00:52:06.085Z,8.85
2022-08-01T00:54:33.767Z,8.05
2022-08-01T00:57:01.171Z,8.70
2022-08-01T00:59:28.531Z,8.55
2022-08-01T01:01:56.193Z,8.73
2022-08-01T01:04:23.627Z,7.70
2022-08-01T01:07:20.105Z,8.15
2022-08-01T01:10:16.485Z,7.93
2022-08-01T01:12:55.248Z,7.40
2022-08-01T01:15:58.843Z,7.90
2022-08-01T01:18:38.877Z,7.90
2022-08-01T01:21:06.230Z,8.45
2022-08-01T01:23:59.175Z,8.65
2022-08-01T01:26:48.983Z,8.10
2022-08-01T01:29:28.396Z,7.82
2022-08-01T01:32:31.085Z,8.48
2022-08-01T01:34:59.709Z,7.95
2022-08-01T01:37:28.402Z,8.77
2022-08-01T01:39:56.644Z,8.02
2022-08-01T01:42:26.702Z,7.45
2022-08-01T01:44:55.547Z,7.70
2022-08-01T01:47:24.331Z,7.72
2022-08-01T01:49:53.681Z,7.55
2022-08-01T01:52:22.021Z,7.35
2022-08-01T01:54:51.621Z,7.68
2022-08-01T01:57:20.847Z,7.95
2022-08-01T01:59:50.820Z,7.25
2022-08-01T02:02:20.040Z,7.63
2022-08-01T02:04:48.662Z,7.90
2022-08-01T02:07:23.673Z,8.57
2022-08-01T02:09:52.296Z,8.90
2022-08-01T02:12:22.737Z,9.15
2022-08-01T02:14:52.297Z,10.35
2022-08-01T02:17:20.964Z,10.65
2022-08-01T02:19:48.813Z,11.77
2022-08-01T02:22:21.711Z,11.45
2022-08-01T02:24:55.590Z,12.65
2022-08-01T02:27:29.779Z,12.55
2022-08-01T02:30:02.685Z,13.75
2022-08-01T02:32:39.060Z,14.38
2022-08-01T02:35:11.081Z,13.82
2022-08-01T02:37:44.378Z,14.82
2022-08-01T02:40:14.586Z,14.45
2022-08-01T02:42:50.465Z,15.13
2022-08-01T02:45:19.870Z,14.95
2022-08-01T02:47:48.621Z,15.18
2022-08-01T02:50:17.787Z,16.20
2022-08-01T02:52:49.543Z,15.80
2022-08-01T02:55:18.226Z,16.75
2022-08-01T02:57:52.376Z,16.38
2022-08-01T03:00:20.250Z,15.53
2022-08-01T03:02:55.831Z,16.45
2022-08-01T03:05:25.111Z,15.63
2022-08-01T03:07:54.033Z,16.70
2022-08-01T03:10:22.586Z,16.00
2022-08-01T03:12:51.420Z,16.13
2022-08-01T03:15:19.844Z,15.90
2022-08-01T03:17:49.468Z,16.70
2022-08-01T03:20:19.213Z,16.15
2022-08-01T03:22:47.237Z,16.75
2022-08-01T03:25:16.242Z,16.30
2022-08-01T03:27:51.356Z,16.10
2022-08-01T03:30:18.313Z,15.77
2022-08-01T03:32:45.440Z,16.10
2022-08-01T03:35:12.338Z,15.35
2022-08-01T03:38:13.507Z,16.58
2022-08-01T03:40:39.777Z,15.95
2022-08-01T03:43:26.970Z,16.65
2022-08-01T03:45:56.049Z,16.85
2022-08-01T03:48:30.382Z,15.95
2022-08-01T03:50:59.232Z,14.88
2022-08-01T03:53:30.012Z,17.30
2022-08-01T03:55:59.607Z,16.73
2022-08-01T03:58:28.054Z,17.08
2022-08-01T04:00:55.674Z,16.02
2022-08-01T04:03:23.678Z,16.15
2022-08-01T04:05:51.636Z,16.60
2022-08-01T04:08:18.569Z,16.48
2022-08-01T04:10:45.432Z,15.80
2022-08-01T04:13:12.303Z,15.63
2022-08-01T04:15:39.163Z,15.35
2022-08-01T04:18:07.786Z,15.85
2022-08-01T04:20:34.670Z,16.75
2022-08-01T04:23:03.642Z,17.00
2022-08-01T04:25:38.028Z,16.02
2022-08-01T04:28:08.597Z,15.03
2022-08-01T04:30:38.912Z,17.38
2022-08-01T04:33:09.147Z,16.38
2022-08-01T04:36:04.219Z,15.15
2022-08-01T04:38:28.466Z,16.25
2022-08-01T04:40:57.412Z,15.70
2022-08-01T04:43:24.385Z,15.82
2022-08-01T04:45:52.729Z,16.20
2022-08-01T04:48:22.700Z,16.20
2022-08-01T04:50:50.442Z,15.35
2022-08-01T04:53:19.401Z,15.23
2022-08-01T04:55:47.341Z,15.57
2022-08-01T04:58:18.180Z,16.13
2022-08-01T05:00:46.683Z,16.17
2022-08-01T05:03:13.568Z,16.00
2022-08-01T05:05:40.830Z,15.40
2022-08-01T05:08:07.989Z,14.65
2022-08-01T05:10:35.374Z,16.55
2022-08-01T05:13:02.235Z,15.52
2022-08-01T05:15:29.180Z,15.90
2022-08-01T05:17:57.275Z,15.38
2022-08-01T05:20:24.301Z,14.75
2022-08-01T05:22:51.170Z,14.95
2022-08-01T05:25:19.980Z,15.63
2022-08-01T05:27:49.188Z,16.10
2022-08-01T05:30:18.084Z,15.43
2022-08-01T05:32:44.947Z,14.75
2022-08-01T05:35:11.862Z,14.57
2022-08-01T05:37:38.712Z,15.07
2022-08-01T05:40:06.902Z,14.95
2022-08-01T05:42:33.767Z,15.77
2022-08-01T05:45:00.610Z,16.20
2022-08-01T05:47:27.509Z,14.05
2022-08-01T05:49:54.471Z,14.27
2022-08-01T05:52:21.325Z,13.88
2022-08-01T05:54:48.372Z,13.95
2022-08-01T05:57:15.276Z,13.23
2022-08-01T05:59:42.273Z,14.60
2022-08-01T06:02:09.760Z,13.73
2022-08-01T06:04:36.951Z,14.43
2022-08-01T06:07:03.919Z,14.65
2022-08-01T06:09:31.897Z,15.55
2022-08-01T06:11:58.991Z,13.13
2022-08-01T06:14:25.979Z,13.13
2022-08-01T06:16:52.919Z,13.75
2022-08-01T06:19:19.784Z,14.20
2022-08-01T06:21:46.656Z,13.18
2022-08-01T06:24:13.611Z,13.60
2022-08-01T06:26:40.461Z,14.68
2022-08-01T06:29:07.301Z,15.07
2022-08-01T06:31:36.970Z,13.73
2022-08-01T06:34:03.825Z,15.30
2022-08-01T06:36:30.670Z,14.70
2022-08-01T06:38:57.520Z,14.23
2022-08-01T06:41:24.639Z,13.85
2022-08-01T06:43:51.562Z,13.65
2022-08-01T06:46:18.460Z,13.75
2022-08-01T06:48:45.377Z,14.02
2022-08-01T06:51:16.536Z,13.68
2022-08-01T06:53:43.939Z,13.35
2022-08-01T06:56:12.079Z,14.38
2022-08-01T06:58:39.021Z,14.05
2022-08-01T07:01:09.940Z,13.48
2022-08-01T07:03:53.181Z,13.48
2022-08-01T07:06:21.555Z,14.27
2022-08-01T07:08:48.447Z,13.98
2022-08-01T07:11:15.277Z,14.15
2022-08-01T07:13:45.478Z,14.25
2022-08-01T07:16:13.925Z,14.70
2022-08-01T07:18:41.612Z,14.48
2022-08-01T07:21:16.689Z,15.10
2022-08-01T07:23:56.049Z,12.75
2022-08-01T07:26:23.492Z,13.55
2022-08-01T07:28:50.595Z,13.82
2022-08-01T07:31:17.577Z,13.02
2022-08-01T07:33:49.003Z,13.35
2022-08-01T07:36:19.899Z,13.48
2022-08-01T07:38:47.012Z,12.27
2022-08-01T07:41:13.855Z,14.07
2022-08-01T07:43:42.001Z,14.90
2022-08-01T07:46:12.410Z,16.50
2022-08-01T07:48:39.281Z,15.10
2022-08-01T07:51:06.130Z,13.88
2022-08-01T07:53:32.992Z,13.90
2022-08-01T07:56:00.837Z,15.02
2022-08-01T07:58:27.689Z,14.05
2022-08-01T08:00:54.547Z,14.15
2022-08-01T08:03:21.493Z,12.95
2022-08-01T08:05:58.639Z,15.60
2022-08-01T08:08:27.549Z,12.57
2022-08-01T08:10:54.767Z,12.68
2022-08-01T08:13:21.968Z,13.80
2022-08-01T08:15:49.244Z,12.27
2022-08-01T08:18:17.147Z,12.93
2022-08-01T08:20:44.428Z,13.85
2022-08-01T08:23:42.008Z,10.88
2022-08-01T08:26:10.630Z,10.73
2022-08-01T08:28:37.661Z,9.65
2022-08-01T08:31:04.576Z,9.02
2022-08-01T08:33:31.430Z,7.75
2022-08-01T08:35:58.348Z,8.85
2022-08-01T08:38:29.817Z,8.00
2022-08-01T08:40:57.897Z,8.07
2022-08-01T08:43:27.106Z,8.10
2022-08-01T08:45:59.157Z,8.77
2022-08-01T08:48:27.714Z,7.43
2022-08-01T08:50:56.325Z,7.35
2022-08-01T08:53:23.729Z,8.20
2022-08-01T08:55:55.782Z,15.20
2022-08-01T08:58:31.355Z,22.83
2022-08-01T09:00:59.052Z,8.27
2022-08-01T09:03:26.262Z,8.40
2022-08-01T09:05:53.190Z,12.25
2022-08-01T09:08:20.094Z,11.82
2022-08-01T09:10:46.926Z,7.88
2022-08-01T09:13:16.028Z,13.15
2022-08-01T09:15:51.258Z,10.68
2022-08-01T09:18:42.016Z,5.93
2022-08-01T09:21:24.101Z,5.63
2022-08-01T09:23:59.812Z,8.25
2022-08-01T09:26:33.938Z,7.47
2022-08-01T09:29:03.937Z,6.57
2022-08-01T09:31:47.390Z,6.43
2022-08-01T09:34:16.274Z,7.43
2022-08-01T09:36:59.203Z,7.97
2022-08-01T09:39:29.615Z,6.50
2022-08-01T09:41:59.692Z,7.05
2022-08-01T09:44:54.355Z,8.90
2022-08-01T09:47:24.067Z,7.57
2022-08-01T09:49:59.107Z,9.50
2022-08-01T09:52:29.037Z,7.72
2022-08-01T09:55:01.917Z,8.15
2022-08-01T09:57:30.319Z,9.45
2022-08-01T10:00:01.615Z,9.02
2022-08-01T10:02:34.521Z,8.68
2022-08-01T10:05:08.364Z,6.38
2022-08-01T10:07:43.532Z,6.13
2022-08-01T10:12:44.364Z,5.25
2022-08-01T10:15:15.561Z,5.93
2022-08-01T10:17:54.422Z,6.53
2022-08-01T10:20:30.498Z,6.63
2022-08-01T10:23:05.669Z,7.10
2022-08-01T10:28:23.970Z,8.13
2022-08-01T10:30:53.094Z,7.70
2022-08-01T10:33:50.509Z,6.63
2022-08-01T10:36:10.799Z,6.78
2022-08-01T10:38:38.415Z,6.50
2022-08-01T10:41:08.830Z,6.55
2022-08-01T10:43:36.808Z,6.70
2022-08-01T10:46:05.352Z,6.75
2022-08-01T10:48:53.098Z,6.38
2022-08-01T10:51:22.438Z,6.20
2022-08-01T10:54:11.761Z,7.28
2022-08-01T10:56:45.568Z,6.32
2022-08-01T10:59:50.894Z,8.10
2022-08-01T11:02:34.597Z,7.22
2022-08-01T11:05:08.020Z,6.35
2022-08-01T11:07:52.722Z,5.82
2022-08-01T11:10:25.154Z,6.15
2022-08-01T11:12:53.844Z,6.57
2022-08-01T11:15:30.312Z,6.95
2022-08-01T11:18:00.201Z,6.03
2022-08-01T11:20:34.256Z,5.43
2022-08-01T11:23:07.839Z,6.93
2022-08-01T11:26:03.458Z,6.70
2022-08-01T11:28:32.266Z,7.68
2022-08-01T11:31:11.173Z,8.25
2022-08-01T11:33:46.949Z,8.82
2022-08-01T11:39:14.230Z,7.85
2022-08-01T11:41:44.958Z,8.00
2022-08-01T11:44:21.231Z,8.73
2022-08-01T11:47:13.370Z,7.80
2022-08-01T11:49:49.297Z,8.52
2022-08-01T11:52:31.339Z,8.63
2022-08-01T11:55:10.481Z,9.80
2022-08-01T11:57:39.446Z,8.70
2022-08-01T12:00:17.990Z,8.90
2022-08-01T12:02:47.759Z,8.30
2022-08-01T12:05:19.204Z,7.97
2022-08-01T12:07:47.465Z,9.68
2022-08-01T12:10:17.325Z,8.98
2022-08-01T12:12:49.528Z,10.00
2022-08-01T12:15:17.075Z,9.10
2022-08-01T12:17:58.063Z,10.07
2022-08-01T12:20:30.390Z,8.95
2022-08-01T12:23:00.462Z,10.27
2022-08-01T12:25:27.424Z,9.85
2022-08-01T12:27:56.648Z,8.50
2022-08-01T12:30:28.135Z,9.45
2022-08-01T12:32:55.863Z,9.80
2022-08-01T12:35:28.407Z,10.30
2022-08-01T12:37:58.255Z,8.80
2022-08-01T12:40:26.654Z,9.85
2022-08-01T12:43:03.510Z,9.30
2022-08-01T12:45:37.540Z,9.82
2022-08-01T12:48:15.662Z,8.88
2022-08-01T12:50:44.875Z,8.85
2022-08-01T12:53:16.683Z,9.85
2022-08-01T12:55:59.121Z,9.63
2022-08-01T12:58:34.582Z,9.13
2022-08-01T13:01:07.010Z,9.10
2022-08-01T13:03:34.168Z,9.40
2022-08-01T13:06:01.437Z,9.30
2022-08-01T13:08:33.569Z,9.95
2022-08-01T13:11:09.755Z,9.73
2022-08-01T13:13:41.900Z,9.13
2022-08-01T13:16:12.414Z,9.63
2022-08-01T13:18:51.194Z,9.50
2022-08-01T13:21:29.569Z,9.32
2022-08-01T13:24:16.743Z,9.35
2022-08-01T13:26:50.028Z,12.40
2022-08-01T13:29:30.049Z,9.60
2022-08-01T13:31:57.030Z,8.57
2022-08-01T13:34:34.772Z,10.13
2022-08-01T13:37:02.755Z,9.20
2022-08-01T13:39:43.162Z,9.93
2022-08-01T13:42:16.392Z,7.28
2022-08-01T13:44:46.483Z,6.97
2022-08-01T13:47:15.733Z,7.88
2022-08-01T13:49:43.105Z,7.75
2022-08-01T13:52:10.216Z,6.97
2022-08-01T13:54:37.450Z,6.53
2022-08-01T13:57:04.465Z,6.97
2022-08-01T13:59:31.541Z,6.38
2022-08-01T14:01:58.527Z,6.65
2022-08-01T14:04:25.436Z,6.90
2022-08-01T14:06:52.317Z,5.63
2022-08-01T14:09:24.176Z,6.45
2022-08-01T14:11:52.111Z,7.22
2022-08-01T14:14:19.009Z,7.07
2022-08-01T14:16:46.131Z,5.93
2022-08-01T14:19:13.424Z,5.78
2022-08-01T14:21:40.295Z,6.38
2022-08-01T14:24:07.779Z,5.93
2022-08-01T14:26:36.215Z,6.32
2022-08-01T14:29:03.468Z,5.88
2022-08-01T14:31:34.044Z,6.38
2022-08-01T14:34:01.441Z,6.80
2022-08-01T14:36:31.248Z,7.00
2022-08-01T14:39:00.450Z,6.47
2022-08-01T14:41:28.458Z,6.30
2022-08-01T14:43:57.855Z,6.13
2022-08-01T14:46:24.752Z,5.70
2022-08-01T14:48:51.671Z,6.38
2022-08-01T14:51:18.578Z,6.40
2022-08-01T14:53:46.926Z,6.25
2022-08-01T14:56:20.054Z,8.35
2022-08-01T14:58:46.943Z,5.88
2022-08-01T15:01:15.988Z,6.10
2022-08-01T15:03:43.033Z,6.40
2022-08-01T15:06:12.347Z,6.75
2022-08-01T15:08:39.549Z,6.43
2022-08-01T15:11:06.962Z,5.72
2022-08-01T15:13:33.843Z,6.18
2022-08-01T15:16:00.921Z,6.00
2022-08-01T15:18:30.891Z,5.82
2022-08-01T15:21:01.517Z,6.10
2022-08-01T15:23:28.500Z,5.80
2022-08-01T15:25:55.338Z,6.07
2022-08-01T15:28:22.239Z,6.55
2022-08-01T15:30:49.144Z,6.18
2022-08-01T15:33:16.414Z,6.30
2022-08-01T15:35:43.689Z,6.07
2022-08-01T15:38:10.611Z,6.07
2022-08-01T15:40:37.508Z,5.60
2022-08-01T15:43:04.661Z,6.10
2022-08-01T15:45:46.858Z,6.43
2022-08-01T15:48:14.978Z,6.32
2022-08-01T15:50:41.854Z,6.15
2022-08-01T15:53:08.800Z,6.38
2022-08-01T15:55:39.794Z,5.45
2022-08-01T15:58:07.384Z,5.72
2022-08-01T16:00:38.834Z,5.28
2022-08-01T16:03:07.897Z,7.13
2022-08-01T16:05:41.129Z,6.85
2022-08-01T16:08:11.391Z,5.93
2022-08-01T16:10:38.362Z,5.75
2022-08-01T16:13:07.540Z,7.07
2022-08-01T16:15:39.189Z,6.30
2022-08-01T16:18:07.306Z,6.28
2022-08-01T16:20:34.705Z,6.72
2022-08-01T16:23:01.719Z,7.65
2022-08-01T16:25:28.650Z,11.98
2022-08-01T16:27:55.570Z,8.38
2022-08-01T16:30:22.467Z,8.38
2022-08-01T16:32:51.042Z,8.52
2022-08-01T16:35:19.446Z,9.05
2022-08-01T16:37:47.319Z,8.35
2022-08-01T16:40:14.272Z,6.53
2022-08-01T16:42:41.129Z,6.47
2022-08-01T16:45:13.868Z,7.60
2022-08-01T16:47:41.480Z,5.97
2022-08-01T16:50:09.688Z,6.30
2022-08-01T16:52:42.100Z,7.18
2022-08-01T16:55:10.373Z,8.82
2022-08-01T16:57:38.545Z,10.82
2022-08-01T17:00:20.933Z,7.80
2022-08-01T17:02:48.650Z,7.95
2022-08-01T17:05:15.665Z,5.78
2022-08-01T17:07:42.512Z,5.95
2022-08-01T17:10:10.219Z,5.93
2022-08-01T17:12:38.609Z,6.45
2022-08-01T17:15:07.485Z,5.85
2022-08-01T17:17:34.408Z,5.93
2022-08-01T17:20:01.283Z,5.97
2022-08-01T17:22:28.191Z,6.22
2022-08-01T17:24:55.069Z,6.32
2022-08-01T17:27:21.980Z,6.35
2022-08-01T17:29:48.887Z,6.53
2022-08-01T17:32:15.837Z,6.03
2022-08-01T17:34:43.131Z,6.13
2022-08-01T17:37:10.842Z,7.28
2022-08-01T17:39:39.341Z,6.30
2022-08-01T17:42:08.405Z,6.35
2022-08-01T17:44:35.522Z,8.40
2022-08-01T17:47:02.804Z,11.70
2022-08-01T17:49:53.225Z,14.70
2022-08-01T17:52:16.687Z,12.48
2022-08-01T17:54:43.613Z,13.63
2022-08-01T17:57:10.545Z,12.82
2022-08-01T17:59:37.451Z,13.73
2022-08-01T18:02:04.673Z,13.23
2022-08-01T18:04:33.994Z,12.82
2022-08-01T18:07:01.745Z,12.38
2022-08-01T18:09:32.830Z,10.82
2022-08-01T18:12:02.003Z,11.15
2022-08-01T18:14:39.780Z,9.65
2022-08-01T18:17:11.493Z,9.75
2022-08-01T18:19:41.676Z,9.20
2022-08-01T18:22:14.503Z,7.78
2022-08-01T18:24:58.757Z,7.47
2022-08-01T18:28:23.337Z,7.07
2022-08-01T18:30:17.653Z,7.50
2022-08-01T18:32:44.519Z,6.85
2022-08-01T18:35:14.372Z,7.22
2022-08-01T18:37:48.035Z,7.90
2022-08-01T18:40:23.067Z,8.85
2022-08-01T18:42:50.232Z,9.20
2022-08-01T18:45:17.981Z,8.88
2022-08-01T18:47:45.612Z,7.30
2022-08-01T18:50:12.476Z,7.55
2022-08-01T18:52:39.353Z,8.27
2022-08-01T18:55:08.325Z,8.57
2022-08-01T18:57:37.712Z,8.43
2022-08-01T19:00:09.504Z,9.45
2022-08-01T19:02:36.462Z,8.90
2022-08-01T19:05:03.649Z,8.35
2022-08-01T19:08:04.377Z,8.90
2022-08-01T19:10:17.369Z,8.80
2022-08-01T19:12:44.258Z,9.32
2022-08-01T19:15:13.251Z,8.90
2022-08-01T19:17:40.200Z,8.38
2022-08-01T19:20:07.822Z,8.65
2022-08-01T19:22:34.957Z,8.35
2022-08-01T19:25:01.917Z,8.38
2022-08-01T19:27:32.937Z,7.50
2022-08-01T19:30:02.176Z,8.18
2022-08-01T19:32:33.006Z,10.15
2022-08-01T19:35:11.618Z,8.32
2022-08-01T19:37:54.097Z,10.88
2022-08-01T19:40:26.366Z,11.48
2022-08-01T19:42:56.010Z,14.13
2022-08-01T19:45:23.074Z,15.88
2022-08-01T19:47:56.649Z,16.45
2022-08-01T19:50:26.878Z,16.80
2022-08-01T19:52:55.737Z,16.40
2022-08-01T19:55:24.794Z,16.52
2022-08-01T20:00:41.037Z,17.88
2022-08-01T20:03:09.287Z,17.90
2022-08-01T20:05:37.429Z,19.60
2022-08-01T20:08:06.705Z,18.58
2022-08-01T20:10:34.233Z,18.63
2022-08-01T20:13:02.354Z,18.92
2022-08-01T20:15:30.102Z,17.25
2022-08-01T20:18:00.688Z,19.13
2022-08-01T20:20:28.014Z,19.25
2022-08-01T20:22:57.368Z,21.23
2022-08-01T20:25:33.557Z,23.05
2022-08-01T20:28:10.865Z,20.75
2022-08-01T20:30:41.609Z,20.00
2022-08-01T20:33:10.579Z,22.00
2022-08-01T20:35:51.852Z,20.48
2022-08-01T20:38:23.065Z,24.05
2022-08-01T20:40:56.644Z,16.98
2022-08-01T20:43:23.710Z,20.50
2022-08-01T20:45:51.503Z,22.38
2022-08-01T20:48:19.219Z,19.55
2022-08-01T20:51:05.972Z,18.70
2022-08-01T20:53:39.401Z,12.13
2022-08-01T20:56:21.327Z,10.82
2022-08-01T20:59:00.276Z,8.57
2022-08-01T21:01:30.295Z,7.63
2022-08-01T21:04:08.772Z,8.05
2022-08-01T21:06:42.693Z,7.28
2022-08-01T21:09:14.023Z,10.55
2022-08-01T21:11:51.341Z,8.40
2022-08-01T21:14:23.142Z,10.73
2022-08-01T21:16:58.935Z,11.50
2022-08-01T21:19:30.270Z,12.23
2022-08-01T21:22:09.941Z,13.20
2022-08-01T21:24:58.093Z,10.07
2022-08-01T21:27:33.466Z,6.53
2022-08-01T21:32:33.233Z,9.77
2022-08-01T21:35:01.197Z,6.97
2022-08-01T21:37:29.969Z,7.35
2022-08-01T21:39:58.578Z,9.32
2022-08-01T21:42:27.821Z,8.48
2022-08-01T21:44:59.013Z,8.90
2022-08-01T21:47:28.708Z,9.27
2022-08-01T21:49:59.873Z,7.43
2022-08-01T21:52:27.551Z,10.55
2022-08-01T21:54:59.845Z,10.02
2022-08-01T21:57:44.028Z,8.10
2022-08-01T22:00:24.942Z,10.93
2022-08-01T22:03:08.224Z,11.82
2022-08-01T22:05:50.434Z,11.32
2022-08-01T22:08:43.546Z,11.85
2022-08-01T22:11:14.311Z,10.90
2022-08-01T22:13:42.194Z,8.32
2022-08-01T22:16:12.569Z,9.70
2022-08-01T22:18:39.648Z,8.98
2022-08-01T22:21:07.059Z,8.98
2022-08-01T22:23:37.733Z,8.32
2022-08-01T22:26:10.045Z,7.97
2022-08-01T22:28:38.673Z,7.13
2022-08-01T22:31:09.588Z,6.35
2022-08-01T22:33:37.640Z,6.95
2022-08-01T22:36:06.255Z,6.78
2022-08-01T22:38:33.790Z,7.45
2022-08-01T22:41:21.211Z,7.13
2022-08-01T22:44:00.266Z,6.40
2022-08-01T22:46:55.578Z,6.00
2022-08-01T22:49:34.819Z,6.50
2022-08-01T22:52:12.232Z,6.95
2022-08-01T22:54:43.982Z,7.07
2022-08-01T22:57:24.477Z,8.38
2022-08-01T23:00:04.897Z,8.32
2022-08-01T23:02:34.154Z,7.03
2022-08-01T23:05:07.868Z,7.38
2022-08-01T23:07:55.984Z,7.22
2022-08-01T23:10:24.924Z,9.35
2022-08-01T23:12:53.536Z,8.77
2022-08-01T23:15:21.300Z,8.30
2022-08-01T23:17:49.999Z,10.05
2022-08-01T23:20:17.886Z,9.50
2022-08-01T23:22:44.854Z,9.85
2022-08-01T23:25:13.839Z,8.45
2022-08-01T23:27:51.776Z,8.95
2022-08-01T23:30:32.581Z,9.20
2022-08-01T23:33:00.330Z,9.88
2022-08-01T23:35:28.997Z,11.02
2022-08-01T23:38:02.329Z,11.65
2022-08-01T23:40:34.049Z,11.43
2022-08-01T23:43:02.551Z,11.40
2022-08-01T23:45:38.203Z,10.57
2022-08-01T23:48:17.716Z,9.20
2022-08-01T23:50:44.909Z,8.95
2022-08-01T23:53:12.852Z,10.88
2022-08-01T23:55:40.624Z,10.05
2022-08-01T23:58:10.391Z,10.40
